Time;durP1;ratioP1;P1;durP2;ratioP2;P2;SDS_P1;SDS_P2;PMS_P1;PMS_P2;Temp;Humidity;BMP_temperature;BMP_pressure;BME280_temperature;BME280_humidity;BME280_pressure;Samples;Min_cycle;Max_cycle;Signal;HPM_P1;HPM_P2
2022/04/11 00:01:15;;;;;;;24.80;19.15;;;28.10;80.20;;;;;;5148198;27;20326;-59
2022/04/11 00:03:42;;;;;;;24.90;19.13;;;28.10;80.40;;;;;;5148422;27;20038;-57
2022/04/11 00:06:08;;;;;;;22.42;17.85;;;28.10;80.10;;;;;;5148457;27;20026;-58
2022/04/11 00:08:38;;;;;;;23.30;19.55;;;28.10;80.20;;;;;;5148478;27;20019;-59
2022/04/11 00:11:05;;;;;;;22.25;19.10;;;28.00;80.40;;;;;;5148161;27;20035;-57
2022/04/11 00:13:31;;;;;;;25.67;19.00;;;28.00;80.20;;;;;;5148593;27;20099;-58
2022/04/11 00:15:58;;;;;;;26.80;18.50;;;28.00;80.40;;;;;;5148097;27;20038;-56
2022/04/11 00:18:25;;;;;;;24.27;18.50;;;28.00;80.40;;;;;;5148463;27;20355;-59
2022/04/11 00:20:52;;;;;;;24.20;18.95;;;28.10;80.30;;;;;;5147917;27;20224;-61
2022/04/11 00:23:19;;;;;;;20.80;18.17;;;28.00;80.30;;;;;;5148214;27;20019;-57
2022/04/11 00:25:45;;;;;;;22.00;18.50;;;28.00;80.10;;;;;;5148087;27;20039;-56
2022/04/11 00:28:12;;;;;;;22.27;18.77;;;28.00;79.90;;;;;;5148298;27;20060;-56
2022/04/11 00:30:38;;;;;;;25.73;18.92;;;28.00;79.90;;;;;;5147959;27;20019;-55
2022/04/11 00:33:06;;;;;;;25.95;19.52;;;28.00;79.90;;;;;;5148239;27;20204;-57
2022/04/11 00:35:33;;;;;;;23.67;19.30;;;28.00;80.00;;;;;;5147714;27;20023;-55
2022/04/11 00:37:59;;;;;;;24.88;19.38;;;28.00;79.80;;;;;;5147981;27;20065;-57
2022/04/11 00:40:26;;;;;;;27.23;19.50;;;28.00;79.60;;;;;;5147798;27;20050;-59
2022/04/11 00:42:53;;;;;;;24.65;19.17;;;28.00;79.60;;;;;;5147831;27;20055;-61
2022/04/11 00:45:20;;;;;;;24.55;19.42;;;27.90;79.50;;;;;;5147559;27;20023;-56
2022/04/11 00:47:46;;;;;;;25.88;19.70;;;27.90;79.50;;;;;;5147760;27;20050;-54
2022/04/11 00:50:14;;;;;;;22.77;19.27;;;27.90;79.30;;;;;;5147318;27;20031;-52
2022/04/11 00:52:44;;;;;;;23.27;19.38;;;27.90;79.40;;;;;;5147575;27;20050;-57
2022/04/11 00:55:12;;;;;;;30.42;19.85;;;27.90;79.10;;;;;;5147464;27;20041;-57
2022/04/11 00:57:39;;;;;;;22.98;18.63;;;27.90;79.00;;;;;;5147677;27;20027;-56
2022/04/11 01:00:08;;;;;;;21.23;19.05;;;27.90;79.10;;;;;;5146012;27;20094;-54
2022/04/11 01:02:35;;;;;;;24.02;20.15;;;27.90;79.10;;;;;;5147533;27;20087;-53
2022/04/11 01:05:05;;;;;;;26.15;19.75;;;27.90;78.80;;;;;;5147270;27;20390;-50
2022/04/11 01:07:32;;;;;;;22.63;19.23;;;27.90;78.70;;;;;;5147233;27;20083;-54
2022/04/11 01:10:00;;;;;;;24.38;19.45;;;27.90;78.40;;;;;;5147328;27;20035;-59
2022/04/11 01:12:27;;;;;;;25.83;20.05;;;27.80;78.40;;;;;;5146971;27;20438;-54
2022/04/11 01:14:53;;;;;;;23.77;20.00;;;27.90;78.30;;;;;;5146892;27;20015;-54
2022/04/11 01:17:20;;;;;;;25.83;19.52;;;27.80;78.10;;;;;;5147272;27;20094;-54
2022/04/11 01:19:47;;;;;;;24.20;20.17;;;27.80;78.00;;;;;;5147090;27;20035;-54
2022/04/11 01:22:14;;;;;;;24.60;19.13;;;27.80;77.90;;;;;;5146671;27;20033;-53
2022/04/11 01:24:41;;;;;;;25.08;20.40;;;27.80;78.20;;;;;;5146898;27;20098;-55
2022/04/11 01:27:08;;;;;;;25.83;20.27;;;27.80;78.20;;;;;;5146824;27;20031;-56
2022/04/11 01:29:34;;;;;;;32.35;21.20;;;27.80;78.00;;;;;;5146618;27;20015;-56
2022/04/11 01:32:04;;;;;;;29.08;21.42;;;27.80;77.90;;;;;;5146734;27;20231;-53
2022/04/11 01:34:30;;;;;;;23.50;20.98;;;27.80;78.10;;;;;;5146559;27;20090;-53
2022/04/11 01:36:57;;;;;;;24.70;20.73;;;27.80;78.20;;;;;;5146468;27;20015;-53
2022/04/11 01:39:24;;;;;;;26.60;21.33;;;27.80;78.50;;;;;;5146691;27;20035;-57
2022/04/11 01:41:50;;;;;;;23.35;20.23;;;27.80;78.20;;;;;;5146523;27;20019;-53
2022/04/11 01:44:18;;;;;;;24.17;21.27;;;27.80;78.30;;;;;;5146488;27;20082;-54
2022/04/11 01:46:46;;;;;;;30.63;21.65;;;27.80;78.20;;;;;;5146286;27;20023;-53
2022/04/11 01:49:13;;;;;;;24.90;21.02;;;27.80;78.10;;;;;;5146260;27;20034;-56
2022/04/11 01:51:39;;;;;;;31.95;21.30;;;27.70;78.10;;;;;;5146281;27;20058;-56
2022/04/11 01:54:06;;;;;;;29.10;22.63;;;27.70;78.30;;;;;;5146417;27;20035;-56
2022/04/11 01:56:33;;;;;;;36.40;22.20;;;27.70;79.20;;;;;;5146215;27;20140;-57
2022/04/11 01:58:59;;;;;;;31.55;23.08;;;27.70;78.80;;;;;;5146125;27;20086;-53
2022/04/11 02:01:26;;;;;;;27.70;22.55;;;27.70;78.60;;;;;;5145954;27;20334;-55
2022/04/11 02:03:52;;;;;;;29.63;22.77;;;27.70;78.70;;;;;;5146093;27;20210;-53
2022/04/11 02:06:19;;;;;;;26.02;22.27;;;27.60;79.00;;;;;;5145849;27;20023;-54
2022/04/11 02:08:46;;;;;;;33.50;23.73;;;27.60;79.50;;;;;;5145759;27;20102;-53
2022/04/11 02:11:12;;;;;;;25.70;22.98;;;27.60;79.10;;;;;;5145783;27;20094;-52
2022/04/11 02:13:39;;;;;;;31.08;23.50;;;27.60;79.10;;;;;;5145846;27;20027;-52
2022/04/11 02:16:06;;;;;;;31.83;23.42;;;27.60;79.10;;;;;;5145668;27;20027;-55
2022/04/11 02:18:32;;;;;;;30.55;23.52;;;27.60;79.20;;;;;;5146265;27;20246;-53
2022/04/11 02:21:00;;;;;;;29.00;22.85;;;27.50;78.90;;;;;;5145819;27;20222;-52
2022/04/11 02:23:28;;;;;;;26.20;22.92;;;27.60;79.00;;;;;;5146041;27;20316;-56
2022/04/11 02:25:54;;;;;;;26.05;22.70;;;27.50;78.70;;;;;;5145675;27;20323;-52
2022/04/11 02:28:22;;;;;;;28.30;22.83;;;27.50;79.40;;;;;;5145957;27;20296;-54
2022/04/11 02:30:49;;;;;;;36.33;24.02;;;27.50;78.60;;;;;;5145461;27;20203;-56
2022/04/11 02:33:16;;;;;;;27.80;22.08;;;27.60;78.40;;;;;;5145853;27;20018;-56
2022/04/11 02:35:43;;;;;;;28.80;23.25;;;27.60;78.20;;;;;;5145406;27;20030;-53
2022/04/11 02:38:11;;;;;;;29.10;22.90;;;27.60;77.80;;;;;;5145569;27;20246;-52
2022/04/11 02:40:37;;;;;;;28.58;23.13;;;27.60;77.90;;;;;;5145316;27;20054;-54
2022/04/11 02:43:04;;;;;;;30.90;23.65;;;27.60;77.80;;;;;;5145826;27;20015;-54
2022/04/11 02:45:31;;;;;;;28.00;22.98;;;27.50;77.80;;;;;;5145286;27;20058;-54
2022/04/11 02:47:58;;;;;;;26.48;22.58;;;27.50;77.50;;;;;;5145416;27;20068;-51
2022/04/11 02:50:25;;;;;;;25.73;23.10;;;27.50;77.50;;;;;;5145267;27;20030;-53
2022/04/11 02:52:52;;;;;;;28.33;23.27;;;27.50;77.70;;;;;;5144915;27;20044;-53
2022/04/11 02:55:19;;;;;;;31.33;24.35;;;27.50;77.80;;;;;;5145117;27;20028;-57
2022/04/11 02:57:45;;;;;;;29.33;23.63;;;27.50;77.60;;;;;;5145402;27;20090;-53
2022/04/11 03:00:13;;;;;;;27.55;24.65;;;27.50;77.70;;;;;;5145022;27;20034;-55
2022/04/11 03:02:40;;;;;;;26.90;23.85;;;27.50;78.20;;;;;;5145357;27;20203;-54
2022/04/11 03:05:09;;;;;;;26.45;23.58;;;27.40;78.20;;;;;;5145113;27;20030;-57
2022/04/11 03:07:35;;;;;;;29.13;24.50;;;27.40;78.00;;;;;;5145143;27;20057;-55
2022/04/11 03:10:02;;;;;;;27.90;25.00;;;27.40;77.80;;;;;;5145245;27;20108;-53
2022/04/11 03:12:28;;;;;;;26.70;23.92;;;27.40;78.10;;;;;;5145132;28;20015;-52
2022/04/11 03:14:55;;;;;;;25.77;23.20;;;27.40;77.60;;;;;;5144863;28;20035;-55
2022/04/11 03:17:22;;;;;;;27.90;23.85;;;27.40;77.50;;;;;;5145242;28;20035;-53
2022/04/11 03:19:48;;;;;;;25.88;23.13;;;27.40;77.60;;;;;;5145040;28;20023;-56
2022/04/11 03:22:15;;;;;;;25.63;22.58;;;27.40;77.30;;;;;;5145089;27;20054;-53
2022/04/11 03:24:42;;;;;;;26.60;23.75;;;27.40;77.40;;;;;;5149151;27;20031;-61
2022/04/11 03:27:08;;;;;;;26.15;23.33;;;27.40;77.40;;;;;;5149335;27;20030;-55
2022/04/11 03:29:35;;;;;;;26.15;22.67;;;27.40;77.30;;;;;;5148978;27;20023;-56
2022/04/11 03:32:02;;;;;;;27.70;22.70;;;27.40;77.30;;;;;;5149148;27;20318;-54
2022/04/11 03:34:29;;;;;;;25.85;23.15;;;27.40;77.00;;;;;;5149027;27;20027;-56
2022/04/11 03:36:56;;;;;;;26.60;22.45;;;27.40;77.20;;;;;;5148996;27;20023;-57
2022/04/11 03:39:23;;;;;;;24.20;21.67;;;27.40;77.20;;;;;;5148899;27;20050;-56
2022/04/11 03:41:50;;;;;;;23.73;21.52;;;27.30;77.20;;;;;;5148883;27;20021;-54
2022/04/11 03:44:16;;;;;;;25.40;22.00;;;27.40;77.20;;;;;;5148777;27;20027;-61
2022/04/11 03:46:43;;;;;;;23.98;21.60;;;27.40;77.00;;;;;;5148993;27;20054;-54
2022/04/11 03:49:09;;;;;;;26.48;22.00;;;27.40;76.80;;;;;;5148708;27;20029;-52
2022/04/11 03:51:36;;;;;;;24.55;22.15;;;27.40;76.90;;;;;;5148501;27;20039;-53
2022/04/11 03:54:02;;;;;;;23.42;21.02;;;27.40;76.80;;;;;;5148564;27;20039;-53
2022/04/11 03:56:29;;;;;;;23.60;21.20;;;27.30;76.60;;;;;;5148607;27;20034;-54
2022/04/11 03:58:56;;;;;;;23.98;21.27;;;27.30;77.00;;;;;;5148500;27;20060;-52
2022/04/11 04:01:22;;;;;;;23.50;20.98;;;27.30;76.70;;;;;;5148330;27;20071;-54
2022/04/11 04:03:49;;;;;;;25.55;21.58;;;27.30;76.70;;;;;;5148440;27;20027;-53
2022/04/11 04:06:15;;;;;;;27.50;21.85;;;27.30;77.00;;;;;;5148469;27;20303;-54
2022/04/11 04:08:42;;;;;;;24.45;20.63;;;27.30;76.70;;;;;;5148186;27;20078;-57
2022/04/11 04:11:10;;;;;;;22.85;20.48;;;27.30;76.90;;;;;;5148424;27;20355;-53
2022/04/11 04:13:36;;;;;;;23.45;20.95;;;27.30;76.80;;;;;;5148802;27;20022;-53
2022/04/11 04:16:04;;;;;;;23.35;21.02;;;27.30;76.70;;;;;;5147996;27;20074;-54
2022/04/11 04:18:31;;;;;;;24.23;21.70;;;27.30;76.40;;;;;;5148614;27;20023;-53
2022/04/11 04:20:58;;;;;;;23.27;20.80;;;27.30;76.50;;;;;;5148028;27;20090;-53
2022/04/11 04:23:25;;;;;;;22.52;20.23;;;27.30;76.50;;;;;;5148417;27;20031;-62
2022/04/11 04:25:52;;;;;;;22.73;20.58;;;27.30;76.30;;;;;;5148272;27;20079;-54
2022/04/11 04:28:18;;;;;;;22.38;20.00;;;27.30;76.60;;;;;;5148381;27;20071;-52
2022/04/11 04:30:45;;;;;;;23.02;20.05;;;27.30;76.60;;;;;;5147733;27;20072;-53
2022/04/11 04:33:15;;;;;;;23.38;19.83;;;27.30;76.30;;;;;;5148301;27;20015;-53
2022/04/11 04:35:41;;;;;;;26.10;20.67;;;27.30;76.40;;;;;;5147755;27;20034;-54
2022/04/11 04:38:08;;;;;;;23.88;20.80;;;27.30;76.00;;;;;;5147555;27;20035;-56
2022/04/11 04:40:35;;;;;;;23.85;20.80;;;27.30;76.40;;;;;;5147797;27;20031;-51
2022/04/11 04:43:04;;;;;;;24.83;20.42;;;27.30;76.20;;;;;;5148119;27;20071;-54
2022/04/11 04:45:31;;;;;;;22.60;20.25;;;27.30;76.10;;;;;;5147468;27;20224;-57
2022/04/11 04:47:58;;;;;;;26.15;21.15;;;27.30;76.10;;;;;;5147870;27;20259;-55
2022/04/11 04:50:25;;;;;;;23.00;20.65;;;27.30;76.10;;;;;;5147615;27;20316;-54
2022/04/11 04:52:51;;;;;;;22.63;20.42;;;27.30;76.10;;;;;;5147219;27;20047;-54
2022/04/11 04:55:20;;;;;;;24.20;21.10;;;27.20;76.10;;;;;;5147373;27;20335;-53
2022/04/11 04:57:47;;;;;;;25.45;20.63;;;27.20;75.90;;;;;;5147654;27;20048;-55
2022/04/11 05:00:14;;;;;;;23.40;20.70;;;27.20;76.20;;;;;;5147323;27;20034;-52
2022/04/11 05:02:40;;;;;;;24.17;21.05;;;27.20;76.40;;;;;;5147566;27;20019;-53
2022/04/11 05:05:09;;;;;;;23.42;20.70;;;27.20;76.60;;;;;;5147262;27;20035;-56
2022/04/11 05:07:35;;;;;;;23.95;21.05;;;27.30;76.60;;;;;;5147215;27;20033;-56
2022/04/11 05:10:07;;;;;;;25.42;21.52;;;27.20;76.60;;;;;;5147163;27;20315;-53
2022/04/11 05:12:44;;;;;;;23.70;21.30;;;27.20;76.80;;;;;;5147400;27;20042;-53
2022/04/11 05:15:12;;;;;;;25.38;21.15;;;27.20;76.50;;;;;;5147117;27;20044;-56
2022/04/11 05:17:39;;;;;;;22.58;20.48;;;27.20;76.50;;;;;;5147387;27;20030;-54
2022/04/11 05:20:08;;;;;;;25.50;21.38;;;27.20;76.80;;;;;;5146890;27;20047;-54
2022/04/11 05:22:35;;;;;;;23.63;21.00;;;27.20;76.70;;;;;;5146838;27;20322;-54
2022/04/11 05:25:02;;;;;;;23.52;21.10;;;27.20;76.80;;;;;;5146830;27;20083;-52
2022/04/11 05:27:28;;;;;;;23.48;20.65;;;27.20;76.80;;;;;;5146943;27;20019;-57
2022/04/11 05:29:55;;;;;;;22.92;20.73;;;27.20;76.50;;;;;;5146900;27;20015;-53
2022/04/11 05:32:22;;;;;;;23.25;20.85;;;27.20;76.30;;;;;;5147016;27;20054;-53
2022/04/11 05:34:48;;;;;;;21.50;19.23;;;27.20;76.50;;;;;;5146635;27;20019;-54
2022/04/11 05:37:15;;;;;;;22.92;20.52;;;27.20;76.40;;;;;;5146881;27;20081;-54
2022/04/11 05:39:42;;;;;;;24.50;20.48;;;27.20;76.40;;;;;;5146442;27;20331;-53
2022/04/11 05:42:09;;;;;;;27.80;21.10;;;27.20;75.70;;;;;;5146581;27;20199;-56
2022/04/11 05:44:35;;;;;;;21.80;19.50;;;27.20;75.90;;;;;;5146522;27;20031;-52
2022/04/11 05:47:02;;;;;;;23.48;19.90;;;27.20;76.00;;;;;;5146100;27;20089;-54
2022/04/11 05:49:29;;;;;;;21.52;19.33;;;27.20;75.70;;;;;;5146313;27;20043;-53
2022/04/11 05:51:55;;;;;;;22.77;19.70;;;27.20;75.70;;;;;;5146313;27;20054;-56
2022/04/11 05:54:22;;;;;;;22.35;19.90;;;27.30;75.80;;;;;;5146340;27;20102;-53
2022/04/11 05:56:48;;;;;;;21.65;19.50;;;27.20;75.90;;;;;;5146402;27;20019;-53
2022/04/11 05:59:15;;;;;;;22.70;19.58;;;27.20;75.60;;;;;;5145960;27;20019;-54
2022/04/11 06:01:42;;;;;;;21.58;19.38;;;27.20;75.80;;;;;;5146237;27;20019;-56
2022/04/11 06:04:08;;;;;;;22.55;19.98;;;27.20;75.90;;;;;;5146214;27;20019;-53
2022/04/11 06:06:36;;;;;;;21.67;19.48;;;27.20;75.90;;;;;;5145861;27;20019;-53
2022/04/11 06:09:04;;;;;;;22.77;20.27;;;27.20;75.90;;;;;;5146007;27;20035;-51
2022/04/11 06:11:30;;;;;;;21.27;19.05;;;27.20;76.00;;;;;;5146018;27;20015;-55
2022/04/11 06:13:58;;;;;;;24.27;19.67;;;27.20;75.90;;;;;;5145662;27;20032;-56
2022/04/11 06:16:25;;;;;;;22.05;19.73;;;27.20;76.10;;;;;;5145763;27;20023;-55
2022/04/11 06:18:52;;;;;;;21.60;19.45;;;27.20;76.20;;;;;;5145888;27;20046;-55
2022/04/11 06:21:18;;;;;;;25.45;20.77;;;27.20;76.30;;;;;;5145617;27;20015;-53
2022/04/11 06:23:45;;;;;;;22.70;20.05;;;27.20;76.50;;;;;;5145653;27;20027;-52
2022/04/11 06:26:12;;;;;;;23.92;20.13;;;27.20;76.40;;;;;;5145785;27;20019;-54
2022/04/11 06:28:41;;;;;;;26.30;20.55;;;27.20;76.40;;;;;;5145409;27;20095;-55
2022/04/11 06:31:15;;;;;;;24.17;20.50;;;27.20;76.40;;;;;;5145542;27;20051;-58
2022/04/11 06:33:42;;;;;;;23.48;21.13;;;27.20;76.70;;;;;;5127945;27;20023;-52
2022/04/11 06:36:09;;;;;;;23.75;20.63;;;27.20;77.20;;;;;;5145507;27;20023;-56
2022/04/11 06:38:36;;;;;;;23.77;20.58;;;27.20;77.60;;;;;;5145933;27;20341;-53
2022/04/11 06:41:03;;;;;;;22.90;20.40;;;27.20;77.90;;;;;;5145409;27;20220;-54
2022/04/11 06:43:30;;;;;;;21.83;19.48;;;27.20;77.70;;;;;;5145669;27;20042;-53
2022/04/11 06:45:56;;;;;;;21.83;19.70;;;27.20;76.90;;;;;;5145320;27;20023;-53
2022/04/11 06:48:23;;;;;;;22.17;19.92;;;27.20;76.90;;;;;;5145816;27;20303;-58
2022/04/11 06:50:51;;;;;;;22.80;20.58;;;27.20;77.20;;;;;;5145214;27;20031;-55
2022/04/11 06:53:18;;;;;;;25.73;20.55;;;27.20;77.30;;;;;;5145038;27;20039;-54
2022/04/11 06:55:47;;;;;;;22.98;20.40;;;27.10;77.70;;;;;;5145189;27;20210;-54
2022/04/11 06:58:17;;;;;;;25.05;21.58;;;27.10;78.00;;;;;;5144708;27;20072;-58
2022/04/11 07:00:45;;;;;;;22.95;20.25;;;27.10;77.70;;;;;;5145205;27;20029;-53
2022/04/11 07:03:11;;;;;;;24.30;20.98;;;27.10;77.80;;;;;;5145567;27;20121;-53
2022/04/11 07:05:39;;;;;;;28.10;23.17;;;27.10;78.10;;;;;;5145401;27;20086;-53
2022/04/11 07:08:06;;;;;;;32.70;25.38;;;27.20;78.10;;;;;;5145523;27;20089;-55
2022/04/11 07:10:33;;;;;;;35.92;26.73;;;27.10;81.50;;;;;;5145072;27;20368;-52
2022/04/11 07:13:00;;;;;;;39.97;25.35;;;27.10;83.10;;;;;;5145396;27;20023;-55
2022/04/11 07:15:27;;;;;;;34.85;26.95;;;27.00;84.70;;;;;;5144925;28;20069;-54
2022/04/11 07:17:53;;;;;;;33.20;26.80;;;26.90;85.50;;;;;;5145240;28;20041;-53
2022/04/11 07:20:20;;;;;;;37.47;26.70;;;26.90;86.00;;;;;;5145136;28;20296;-49
2022/04/11 07:22:47;;;;;;;36.30;28.23;;;26.90;86.90;;;;;;5145271;28;20287;-55
2022/04/11 07:25:13;;;;;;;31.90;27.17;;;26.80;87.40;;;;;;5144814;28;20103;-50
2022/04/11 07:27:40;;;;;;;31.55;26.20;;;26.80;87.60;;;;;;5144965;28;20326;-53
2022/04/11 07:30:07;;;;;;;30.75;26.90;;;26.80;87.60;;;;;;5144880;28;20241;-54
2022/04/11 07:32:34;;;;;;;28.85;25.67;;;26.70;87.60;;;;;;5145118;28;20023;-50
2022/04/11 07:35:00;;;;;;;28.70;24.73;;;26.70;88.00;;;;;;5144781;28;20027;-52
2022/04/11 07:37:28;;;;;;;32.92;25.20;;;26.70;88.10;;;;;;5144893;28;20019;-57
2022/04/11 07:39:55;;;;;;;27.50;24.77;;;26.70;87.60;;;;;;5144721;28;20035;-57
2022/04/11 07:42:21;;;;;;;26.45;23.67;;;26.70;87.30;;;;;;5144846;28;20121;-54
2022/04/11 07:44:48;;;;;;;27.25;24.23;;;26.70;87.10;;;;;;5144798;28;20035;-57
2022/04/11 07:47:14;;;;;;;27.10;24.27;;;26.70;87.10;;;;;;5144845;28;20034;-58
2022/04/11 07:49:41;;;;;;;31.00;25.05;;;26.70;87.20;;;;;;5144704;28;20015;-55
2022/04/11 07:52:08;;;;;;;27.73;24.98;;;26.70;87.70;;;;;;5144390;28;20121;-53
2022/04/11 07:54:35;;;;;;;26.90;24.05;;;26.60;87.90;;;;;;5144660;28;20023;-51
2022/04/11 07:57:02;;;;;;;29.98;25.50;;;26.60;87.60;;;;;;5144655;28;20011;-54
2022/04/11 07:59:29;;;;;;;29.05;26.00;;;26.60;88.00;;;;;;5144520;28;20034;-56
2022/04/11 08:01:55;;;;;;;29.08;25.95;;;26.60;88.70;;;;;;5144766;28;20035;-51
2022/04/11 08:04:22;;;;;;;28.20;25.15;;;26.50;89.00;;;;;;5144351;28;20080;-55
2022/04/11 08:06:48;;;;;;;28.45;25.02;;;26.50;89.40;;;;;;5144518;28;20015;-53
2022/04/11 08:09:15;;;;;;;28.90;26.00;;;26.50;89.70;;;;;;5146160;27;20084;-52
2022/04/11 08:11:41;;;;;;;28.25;25.40;;;26.50;89.90;;;;;;5148345;27;20015;-54
2022/04/11 08:14:08;;;;;;;27.67;24.70;;;26.50;89.80;;;;;;5148475;27;20023;-56
2022/04/11 08:16:35;;;;;;;27.50;24.67;;;26.50;89.80;;;;;;5148292;27;20027;-57
2022/04/11 08:19:01;;;;;;;28.70;25.98;;;26.50;90.10;;;;;;5148089;27;20185;-59
2022/04/11 08:21:28;;;;;;;29.80;26.88;;;26.50;90.00;;;;;;5148161;27;20023;-58
2022/04/11 08:23:55;;;;;;;27.88;24.92;;;26.50;90.00;;;;;;5148199;27;20035;-60
2022/04/11 08:26:21;;;;;;;30.02;25.73;;;26.50;90.20;;;;;;5147962;27;20053;-58
2022/04/11 08:28:48;;;;;;;28.08;25.25;;;26.40;90.00;;;;;;5148095;27;20039;-60
2022/04/11 08:31:14;;;;;;;28.38;25.58;;;26.40;90.20;;;;;;5147890;27;20019;-60
2022/04/11 08:33:41;;;;;;;28.73;25.63;;;26.40;90.40;;;;;;5147960;27;20084;-58
2022/04/11 08:36:08;;;;;;;28.02;25.02;;;26.50;90.40;;;;;;5147865;27;20033;-52
2022/04/11 08:38:35;;;;;;;28.60;25.65;;;26.40;90.30;;;;;;5147710;27;20046;-55
2022/04/11 08:41:03;;;;;;;28.52;25.50;;;26.40;90.20;;;;;;5147896;27;20090;-54
2022/04/11 08:43:32;;;;;;;28.20;25.33;;;26.40;90.30;;;;;;5148236;27;20525;-53
2022/04/11 08:46:02;;;;;;;31.88;25.83;;;26.50;90.40;;;;;;5147786;27;20106;-56
2022/04/11 08:48:29;;;;;;;27.60;25.05;;;26.40;90.50;;;;;;5147932;27;20060;-54
2022/04/11 08:50:56;;;;;;;27.83;25.05;;;26.40;90.50;;;;;;5147658;27;20019;-53
2022/04/11 08:53:23;;;;;;;38.00;34.55;;;26.40;90.50;;;;;;5147334;27;20050;-53
2022/04/11 08:55:51;;;;;;;40.25;36.22;;;26.40;90.60;;;;;;5147330;27;20030;-57
2022/04/11 08:58:18;;;;;;;32.08;28.85;;;26.40;90.80;;;;;;5148029;27;20223;-52
2022/04/11 09:00:45;;;;;;;30.27;27.38;;;26.40;90.60;;;;;;5147452;27;20331;-50
2022/04/11 09:03:12;;;;;;;36.13;32.35;;;26.40;90.60;;;;;;5147549;27;20015;-59
2022/04/11 09:05:39;;;;;;;30.05;26.88;;;26.40;90.50;;;;;;5147362;27;20058;-62
2022/04/11 09:08:06;;;;;;;28.90;26.13;;;26.40;90.40;;;;;;5147620;27;20039;-59
2022/04/11 09:10:37;;;;;;;28.58;25.52;;;26.40;90.40;;;;;;5147078;27;20375;-57
2022/04/11 09:13:09;;;;;;;28.50;25.47;;;26.40;90.60;;;;;;5147536;27;20203;-52
2022/04/11 09:15:47;;;;;;;27.98;25.02;;;26.40;90.60;;;;;;5147067;27;20257;-54
2022/04/11 09:18:14;;;;;;;28.75;25.80;;;26.40;90.60;;;;;;5147392;27;20034;-53
2022/04/11 09:20:44;;;;;;;28.45;25.58;;;26.40;90.80;;;;;;5146292;27;20315;-53
2022/04/11 09:23:22;;;;;;;29.02;26.25;;;26.40;90.80;;;;;;5146901;27;20027;-57
2022/04/11 09:25:48;;;;;;;29.40;26.38;;;26.30;90.90;;;;;;5146881;27;20030;-51
2022/04/11 09:28:16;;;;;;;28.27;25.58;;;26.30;90.90;;;;;;5147167;27;20049;-57
2022/04/11 09:30:43;;;;;;;28.98;25.98;;;26.30;91.00;;;;;;5146989;27;20031;-54
2022/04/11 09:33:11;;;;;;;29.05;26.23;;;26.30;90.90;;;;;;5147148;27;20090;-53
2022/04/11 09:35:40;;;;;;;28.75;26.08;;;26.30;91.00;;;;;;5146721;27;20019;-52
2022/04/11 09:38:07;;;;;;;29.75;26.88;;;26.30;91.10;;;;;;5146861;27;20023;-54
2022/04/11 09:40:37;;;;;;;29.77;26.60;;;26.30;91.00;;;;;;5146609;27;20023;-51
2022/04/11 09:43:04;;;;;;;28.60;25.25;;;26.30;90.80;;;;;;5147068;27;20019;-51
2022/04/11 09:45:31;;;;;;;28.40;25.50;;;26.30;90.80;;;;;;5146486;27;20027;-51
2022/04/11 09:48:05;;;;;;;29.33;26.30;;;26.30;90.80;;;;;;5146851;27;20033;-53
2022/04/11 09:50:32;;;;;;;28.23;25.55;;;26.20;91.00;;;;;;5146368;27;20019;-53
2022/04/11 09:53:10;;;;;;;63.75;57.10;;;26.30;91.00;;;;;;5146125;27;20088;-51
2022/04/11 09:55:38;;;;;;;53.90;48.40;;;26.30;90.90;;;;;;5146268;27;20035;-51
2022/04/11 09:58:05;;;;;;;43.35;36.33;;;26.30;90.90;;;;;;5146549;27;20095;-54
2022/04/11 10:00:34;;;;;;;37.20;33.45;;;26.30;90.90;;;;;;5146385;27;20208;-56
2022/04/11 10:03:03;;;;;;;35.28;31.77;;;26.30;90.70;;;;;;5146652;27;20352;-52
2022/04/11 10:05:30;;;;;;;37.60;33.95;;;26.30;90.80;;;;;;5145883;27;20042;-53
2022/04/11 10:07:57;;;;;;;36.22;32.63;;;26.30;90.80;;;;;;5146250;27;20027;-54
2022/04/11 10:10:23;;;;;;;32.80;29.48;;;26.30;90.90;;;;;;5146101;27;20019;-57
2022/04/11 10:12:53;;;;;;;32.30;29.05;;;26.30;90.80;;;;;;5146078;27;20076;-51
2022/04/11 10:15:24;;;;;;;32.10;28.48;;;26.30;90.80;;;;;;5145792;27;20307;-51
2022/04/11 10:17:53;;;;;;;30.58;27.55;;;26.30;90.90;;;;;;5146267;27;20023;-57
2022/04/11 10:20:29;;;;;;;29.17;26.35;;;26.30;90.90;;;;;;5145770;27;20091;-54
2022/04/11 10:23:28;;;;;;;32.75;26.98;;;26.30;90.90;;;;;;5146192;27;20049;-55
2022/04/11 10:26:00;;;;;;;31.30;25.65;;;26.30;90.70;;;;;;5145808;27;20090;-55
2022/04/11 10:28:28;;;;;;;28.48;25.48;;;26.30;90.70;;;;;;5146035;27;20027;-58
2022/04/11 10:31:11;;;;;;;27.65;24.92;;;26.30;90.70;;;;;;5145663;27;20299;-52
2022/04/11 10:33:43;;;;;;;;;;;26.30;90.80;;;;;;5146585;27;20022;-52
2022/04/11 10:36:38;;;;;;;28.13;25.25;;;26.30;90.80;;;;;;5145708;27;19957;-53
2022/04/11 10:39:17;;;;;;;28.35;25.10;;;26.30;90.80;;;;;;5145216;27;20315;-53
2022/04/11 10:41:58;;;;;;;28.60;24.77;;;26.30;90.80;;;;;;5145612;27;20023;-56
2022/04/11 10:44:45;;;;;;;28.13;25.23;;;26.30;90.70;;;;;;5145344;27;20362;-51
2022/04/11 10:47:12;;;;;;;28.67;25.90;;;26.20;90.70;;;;;;5145381;27;20272;-50
2022/04/11 10:49:50;;;;;;;28.40;25.50;;;26.20;90.80;;;;;;5145256;27;20051;-55
2022/04/11 10:52:32;;;;;;;29.38;26.35;;;26.20;91.00;;;;;;5145245;27;20331;-54
2022/04/11 10:55:05;;;;;;;33.90;26.33;;;26.20;91.10;;;;;;5145190;27;20035;-53
2022/04/11 10:57:39;;;;;;;30.65;26.90;;;26.20;91.10;;;;;;5145556;27;20054;-54
2022/04/11 11:00:14;;;;;;;30.17;27.02;;;26.20;91.20;;;;;;5145052;27;20265;-51
2022/04/11 11:02:53;;;;;;;29.50;26.58;;;26.20;91.20;;;;;;5145594;27;20030;-51
2022/04/11 11:05:40;;;;;;;31.85;26.25;;;26.20;91.10;;;;;;5145011;27;20031;-51
2022/04/11 11:08:10;;;;;;;30.00;26.90;;;26.20;91.10;;;;;;5145067;27;20021;-51
2022/04/11 11:10:49;;;;;;;32.00;28.10;;;26.20;91.20;;;;;;5144855;27;20031;-54
2022/04/11 11:13:35;;;;;;;31.10;27.98;;;26.20;91.20;;;;;;5145414;27;20039;-52
2022/04/11 11:16:08;;;;;;;30.17;27.08;;;26.20;91.20;;;;;;5144831;28;20027;-58
2022/04/11 11:18:46;;;;;;;;;;;26.20;91.30;;;;;;5145905;28;20015;-53
2022/04/11 11:21:37;;;;;;;30.42;27.50;;;26.20;91.20;;;;;;5144822;28;19908;-53
2022/04/11 11:24:12;;;;;;;29.60;26.73;;;26.10;91.10;;;;;;5098678;28;20039;-53
2022/04/11 11:26:52;;;;;;;33.35;27.83;;;26.20;91.10;;;;;;5144911;28;20053;-52
2022/04/11 11:29:29;;;;;;;31.08;27.65;;;26.20;91.10;;;;;;5144784;28;20207;-60
2022/04/11 11:32:14;;;;;;;31.80;27.95;;;26.20;91.10;;;;;;5144891;28;20047;-52
2022/04/11 11:34:42;;;;;;;32.50;27.52;;;26.20;91.10;;;;;;5144862;28;20215;-57
2022/04/11 11:37:13;;;;;;;35.65;27.55;;;26.20;91.10;;;;;;5144849;28;20034;-56
2022/04/11 11:39:45;;;;;;;32.87;27.07;;;26.20;91.20;;;;;;5144712;28;20051;-52
2022/04/11 11:42:18;;;;;;;32.65;27.85;;;26.30;91.20;;;;;;5144769;28;20015;-52
2022/04/11 11:44:46;;;;;;;35.00;27.98;;;26.30;91.20;;;;;;5147244;27;20030;-53
2022/04/11 11:47:13;;;;;;;33.63;28.10;;;26.30;91.20;;;;;;5148956;27;20054;-51
2022/04/11 11:49:52;;;;;;;33.35;27.30;;;26.30;91.30;;;;;;5148552;27;20024;-54
2022/04/11 11:52:20;;;;;;;32.60;28.90;;;26.30;91.40;;;;;;5148337;27;20043;-56
2022/04/11 11:54:56;;;;;;;32.70;29.27;;;26.30;91.50;;;;;;5148488;27;20327;-55
2022/04/11 11:57:27;;;;;;;32.65;28.63;;;26.30;91.70;;;;;;5148807;27;20033;-55
2022/04/11 12:00:08;;;;;;;31.58;28.25;;;26.30;91.80;;;;;;5148651;27;20023;-52
2022/04/11 12:05:30;;;;;;;30.17;26.83;;;26.30;91.80;;;;;;5148411;27;20029;-58
2022/04/11 12:08:03;;;;;;;28.75;25.52;;;26.30;91.80;;;;;;5148621;27;20076;-52
2022/04/11 12:10:32;;;;;;;31.98;27.45;;;26.30;91.70;;;;;;5148249;27;20103;-53
2022/04/11 12:12:59;;;;;;;33.50;26.80;;;26.30;91.60;;;;;;5148575;27;20291;-54
2022/04/11 12:15:32;;;;;;;29.20;26.13;;;26.30;91.60;;;;;;5148272;27;20086;-51
2022/04/11 12:18:04;;;;;;;29.00;26.15;;;26.30;91.60;;;;;;5148350;27;20023;-51
2022/04/11 12:20:31;;;;;;;;;;;26.30;91.80;;;;;;5148650;27;20042;-51
2022/04/11 12:23:11;;;;;;;29.67;26.67;;;26.30;91.80;;;;;;5148410;27;19903;-52
2022/04/11 12:25:42;;;;;;;30.17;26.98;;;26.30;91.90;;;;;;5148050;27;20050;-54
2022/04/11 12:28:26;;;;;;;30.05;27.02;;;26.30;92.10;;;;;;5148292;27;20035;-51
2022/04/11 12:31:12;;;;;;;32.00;28.60;;;26.30;92.20;;;;;;5147973;27;20100;-55
2022/04/11 12:33:43;;;;;;;29.40;26.45;;;26.30;92.40;;;;;;5147922;27;20094;-54
2022/04/11 12:36:20;;;;;;;30.60;27.60;;;26.30;92.30;;;;;;5147950;27;20011;-56
2022/04/11 12:38:54;;;;;;;30.65;27.67;;;26.30;92.40;;;;;;5147668;27;20042;-56